Alledonia, OH

8:20 PM EST on February 11, 2016 (GMT -0500)
Jerusalem | | Change Station
CLOSE
Current Station
Personal Weather Station
Location: Jerusalem, OH
Elevation: 1253 ft
Nearby Weather Stations

Elev 1253 ft 39.86 °N, 81.11 °W | Updated 2 seconds ago

Mostly Cloudy
Mostly Cloudy
10.0 °F
Feels Like 10 °F
N
0.0
Wind Variable Wind from SW
Gusts 1.0 mph

Today
High -- | Low -- °F
--% Chance of Precip.
Yesterday
High -- | Low -- °F
Precip. -- in
Pressure 30.34 in
Visibility 10.0 miles
Clouds Mostly Cloudy 4900 ft
Windchill 10 °F
Dew Point 7 °F
Humidity 88%
Rainfall 0.00 in
Snow Depth Not available.
7:22 AM 5:54 PM
Waxing Crescent, 16% visible
METAR KHLG 120053Z 27004KT 10SM BKN049 M09/M17 A3025 RMK AO2 SLP272 T10941172
Pressure 30.34 in
Visibility 10.0 miles
Clouds Mostly Cloudy 4900 ft
Windchill 10 °F
Dew Point 7 °F
Humidity 88%
Rainfall 0.00 in
Snow Depth Not available.
7:22 AM 5:54 PM
Waxing Crescent, 16% visible
METAR KHLG 120053Z 27004KT 10SM BKN049 M09/M17 A3025 RMK AO2 SLP272 T10941172

10-Day Weather Forecast

Almanac

Astronomy

Feb. 11, 2016 Rise Set
Actual Time
Civil Twilight
Nautical Twilight
Astronomical Twilight
Moon
Length of Visible Light
Length of Day
Tomorrow will be .
, % of the Moon is Illuminated

Today's Extremes

State Highs State Lows

Community

WunderPhotos

Upload Photos

1,892,205 photos uploaded!

WunderBlog® & News

Nearby

Air Quality

  Air Quality AQ Index Pollutant
Not available.

Snow Depth

Station Depth Elevation

Earthquake Activity

City Distance Mag. Time & Date
Minimum magnitude displayed is 2.5.

Coastal Water Temperatures

Place Temperature

Stations

Nearby Weather Stations

Station Location Temp. Windchill Dew Point Humidity Wind Precip. Elev Updated Type
                   

Watches & Warnings

There are currently no watches in effect.